バクー の空港の天気 - METARとTAF

ヘイダル・アリエフ国際空港(バクー) ( UBBB / BAK ) - アゼルバイジャン バクー
飛行場実況気象(Metar)
観測時間03/30 16:00 +04 (03/30 12:00 UTC)
風向・風速南 10m/s 瞬間風速15m/s
視程10km以上
天気現象
なし
気温13℃
湿度62%
気圧1017hPa
METARUBBB 301200Z 18020G30KT CAVOK 13/06 Q1017 R88/D NOSIG
過去の天気等 Google飛行場航空写真 Wunderground天気予報

過去48時間のMETAR

飛行場予報(TAF)
発表時間: 3/30 15:06 +04 (3/30 11:06 UTC)
予報対象時間: 30日16時 +04 ~ 31日16時 +04
風向・風速南 10m/s 瞬間風速 15m/s
視程10km以上
全天の4割程度の雲 雲底高度 610m
全天の4割程度の雲 雲底高度 3,050m
30日16時 +04 ~ 30日24時 +04 に一時的に
風向・風速南南西 13m/s 瞬間風速 19m/s
全天の8割程度の雲 雲底高度 300m
全天の8割程度の雲 雲底高度 3,050m
31日0時 +04 ~ 31日2時 +04 に徐々に
風向・風速北西 9m/s 瞬間風速 14m/s
全天の8割程度の雲 雲底高度 150m
全天を覆う雲 雲底高度 910m
31日8時 +04 ~ 31日10時 +04 に徐々に
風向・風速北 15m/s 瞬間風速 21m/s
31日10時 +04 ~ 31日16時 +04 に一時的に
天気現象弱いしゅう雨
全天の4割程度の積乱雲 雲底高度 910m
全天を覆う雲 雲底高度 910m
TAF UBBB 301106Z 3012/3112 18020G30KT 9999 SCT020 SCT100 TX13/3012Z TN05/3102Z
TEMPO 3012/3020 21026G36KT BKN010 BKN100
BECMG 3020/3022 32018G28KT BKN005 OVC030
BECMG 3104/3106 36030G40KT
TEMPO 3106/3112 -SHRA SCT030CB OVC030